createdAt,value
2022-10-29T00:00:11.736Z,100.00
2022-10-29T00:01:13.981Z,100.00
2022-10-29T00:02:16.125Z,100.00
2022-10-29T00:03:19.731Z,100.00
2022-10-29T00:04:21.958Z,100.00
2022-10-29T00:05:24.257Z,100.00
2022-10-29T00:06:26.457Z,100.00
2022-10-29T00:07:28.679Z,100.00
2022-10-29T00:08:32.643Z,100.00
2022-10-29T00:09:35.550Z,100.00
2022-10-29T00:10:37.751Z,100.00
2022-10-29T00:11:40.093Z,100.00
2022-10-29T00:12:42.216Z,100.00
2022-10-29T00:13:45.338Z,100.00
2022-10-29T00:14:47.465Z,100.00
2022-10-29T00:15:49.610Z,100.00
2022-10-29T00:16:51.909Z,100.00
2022-10-29T00:17:54.205Z,100.00
2022-10-29T00:18:57.216Z,100.00
2022-10-29T00:19:59.388Z,100.00
2022-10-29T00:21:06.738Z,100.00
2022-10-29T00:22:08.886Z,100.00
2022-10-29T00:23:11.022Z,100.00
2022-10-29T00:24:13.247Z,100.00
2022-10-29T00:25:15.472Z,100.00
2022-10-29T00:26:20.415Z,100.00
2022-10-29T00:27:22.567Z,100.00
2022-10-29T00:28:25.714Z,100.00
2022-10-29T00:29:27.832Z,100.00
2022-10-29T00:30:30.028Z,100.00
2022-10-29T00:31:32.232Z,100.00
2022-10-29T00:32:34.472Z,100.00
2022-10-29T00:33:36.619Z,100.00
2022-10-29T00:34:38.766Z,100.00
2022-10-29T00:35:40.878Z,100.00
2022-10-29T00:36:42.967Z,100.00
2022-10-29T00:37:45.060Z,100.00
2022-10-29T00:38:47.165Z,100.00
2022-10-29T00:39:49.294Z,100.00
2022-10-29T00:40:51.565Z,100.00
2022-10-29T00:41:53.716Z,100.00
2022-10-29T00:43:12.742Z,100.00
2022-10-29T00:44:14.830Z,100.00
2022-10-29T00:45:20.250Z,100.00
2022-10-29T00:46:32.064Z,100.00
2022-10-29T00:47:37.012Z,100.00
2022-10-29T00:48:48.410Z,100.00
2022-10-29T00:49:56.521Z,100.00
2022-10-29T00:51:00.824Z,100.00
2022-10-29T00:52:04.980Z,100.00
2022-10-29T00:53:07.352Z,100.00
2022-10-29T00:54:11.388Z,100.00
2022-10-29T00:55:15.784Z,100.00
2022-10-29T00:56:18.152Z,100.00
2022-10-29T00:57:26.328Z,100.00
2022-10-29T00:58:29.388Z,100.00
2022-10-29T00:59:31.673Z,100.00
2022-10-29T01:00:33.797Z,100.00
2022-10-29T01:01:37.516Z,100.00
2022-10-29T01:02:40.103Z,100.00
2022-10-29T01:03:43.206Z,100.00
2022-10-29T01:04:46.044Z,100.00
2022-10-29T01:05:49.167Z,100.00
2022-10-29T01:06:52.578Z,100.00
2022-10-29T01:07:54.681Z,100.00
2022-10-29T01:08:56.782Z,100.00
2022-10-29T01:09:59.097Z,100.00
2022-10-29T01:11:23.021Z,100.00
2022-10-29T01:12:43.706Z,100.00
2022-10-29T01:13:51.714Z,100.00
2022-10-29T01:15:13.034Z,100.00
2022-10-29T01:16:24.245Z,100.00
2022-10-29T01:18:03.407Z,100.00
2022-10-29T01:19:20.723Z,100.00
2022-10-29T01:21:00.485Z,100.00
2022-10-29T01:22:45.506Z,100.00
2022-10-29T01:24:05.445Z,100.00
2022-10-29T01:25:16.358Z,100.00
2022-10-29T01:26:18.442Z,100.00
2022-10-29T01:27:49.484Z,100.00
2022-10-29T01:29:09.949Z,100.00
2022-10-29T01:30:50.768Z,100.00
2022-10-29T01:32:16.791Z,100.00
2022-10-29T01:33:31.405Z,100.00
2022-10-29T01:34:36.454Z,100.00
2022-10-29T01:35:38.500Z,100.00
2022-10-29T01:36:48.249Z,100.00
2022-10-29T01:37:57.213Z,100.00
2022-10-29T01:39:10.421Z,100.00
2022-10-29T01:40:24.068Z,100.00
2022-10-29T01:41:47.181Z,100.00
2022-10-29T01:43:06.400Z,100.00
2022-10-29T01:44:36.612Z,100.00
2022-10-29T01:46:04.038Z,100.00
2022-10-29T01:47:13.711Z,100.00
2022-10-29T01:48:22.439Z,100.00
2022-10-29T01:49:32.490Z,100.00
2022-10-29T01:50:38.004Z,100.00
2022-10-29T01:51:41.699Z,100.00
2022-10-29T01:52:44.886Z,100.00
2022-10-29T01:53:47.645Z,100.00
2022-10-29T01:54:49.776Z,100.00
2022-10-29T01:55:51.876Z,100.00
2022-10-29T01:56:58.504Z,100.00
2022-10-29T01:58:02.834Z,100.00
2022-10-29T01:59:18.271Z,100.00
2022-10-29T02:00:50.250Z,100.00
2022-10-29T02:02:09.144Z,100.00
2022-10-29T02:03:32.437Z,100.00
2022-10-29T02:04:46.527Z,100.00
2022-10-29T02:06:20.712Z,100.00
2022-10-29T02:07:25.718Z,100.00
2022-10-29T02:08:50.861Z,100.00
2022-10-29T02:10:07.986Z,100.00
2022-10-29T02:11:30.809Z,100.00
2022-10-29T02:12:45.892Z,100.00
2022-10-29T02:13:59.102Z,100.00
2022-10-29T02:15:13.088Z,100.00
2022-10-29T02:16:17.415Z,100.00
2022-10-29T02:17:19.801Z,100.00
2022-10-29T02:18:22.691Z,100.00
2022-10-29T02:19:30.383Z,100.00
2022-10-29T02:20:32.560Z,100.00
2022-10-29T02:21:34.663Z,100.00
2022-10-29T02:22:36.793Z,100.00
2022-10-29T02:23:38.960Z,100.00
2022-10-29T02:24:41.135Z,100.00
2022-10-29T02:25:43.722Z,100.00
2022-10-29T02:26:45.932Z,100.00
2022-10-29T02:27:48.071Z,100.00
2022-10-29T02:28:50.246Z,100.00
2022-10-29T02:29:52.350Z,100.00
2022-10-29T02:30:54.520Z,100.00
2022-10-29T02:31:56.630Z,100.00
2022-10-29T02:32:59.052Z,100.00
2022-10-29T02:34:01.960Z,100.00
2022-10-29T02:35:04.571Z,100.00
2022-10-29T02:36:07.305Z,100.00
2022-10-29T02:37:09.436Z,100.00
2022-10-29T02:38:11.655Z,100.00
2022-10-29T02:39:13.752Z,100.00
2022-10-29T02:40:15.887Z,100.00
2022-10-29T02:42:50.857Z,100.00
2022-10-29T02:43:53.052Z,100.00
2022-10-29T02:44:55.162Z,100.00
2022-10-29T02:46:13.546Z,100.00
2022-10-29T02:47:16.168Z,100.00
2022-10-29T02:48:18.337Z,100.00
2022-10-29T02:49:20.571Z,100.00
2022-10-29T02:50:22.710Z,100.00
2022-10-29T02:51:24.810Z,100.00
2022-10-29T02:52:26.935Z,100.00
2022-10-29T02:53:29.068Z,100.00
2022-10-29T02:54:31.266Z,100.00
2022-10-29T02:55:33.433Z,100.00
2022-10-29T02:56:35.541Z,100.00
2022-10-29T02:57:37.648Z,100.00
2022-10-29T02:58:39.783Z,100.00
2022-10-29T02:59:41.941Z,100.00
2022-10-29T03:00:44.056Z,100.00
2022-10-29T03:01:46.339Z,100.00
2022-10-29T03:02:52.759Z,100.00
2022-10-29T03:03:55.103Z,100.00
2022-10-29T03:04:57.313Z,100.00
2022-10-29T03:05:59.435Z,100.00
2022-10-29T03:07:02.474Z,100.00
2022-10-29T03:08:04.921Z,100.00
2022-10-29T03:09:07.033Z,100.00
2022-10-29T03:10:09.557Z,100.00
2022-10-29T03:11:12.166Z,100.00
2022-10-29T03:12:14.270Z,100.00
2022-10-29T03:13:16.450Z,100.00
2022-10-29T03:14:18.571Z,100.00
2022-10-29T03:15:20.717Z,100.00
2022-10-29T03:16:22.854Z,100.00
2022-10-29T03:17:25.077Z,100.00
2022-10-29T03:18:27.196Z,100.00
2022-10-29T03:19:29.292Z,100.00
2022-10-29T03:20:31.763Z,100.00
2022-10-29T03:21:34.100Z,100.00
2022-10-29T03:22:36.740Z,100.00
2022-10-29T03:23:38.926Z,100.00
2022-10-29T03:24:41.072Z,100.00
2022-10-29T03:25:43.276Z,100.00
2022-10-29T03:26:45.379Z,100.00
2022-10-29T03:27:48.306Z,100.00
2022-10-29T03:28:50.635Z,100.00
2022-10-29T03:29:52.805Z,100.00
2022-10-29T03:30:54.977Z,100.00
2022-10-29T03:31:57.102Z,100.00
2022-10-29T03:32:59.359Z,100.00
2022-10-29T03:34:01.651Z,100.00
2022-10-29T03:35:03.960Z,100.00
2022-10-29T03:36:07.706Z,100.00
2022-10-29T03:37:09.950Z,100.00
2022-10-29T03:38:12.328Z,100.00
2022-10-29T03:39:14.458Z,100.00
2022-10-29T03:40:17.053Z,100.00
2022-10-29T03:41:19.223Z,100.00
2022-10-29T03:42:21.349Z,100.00
2022-10-29T03:43:23.898Z,100.00
2022-10-29T03:44:26.028Z,100.00
2022-10-29T03:45:28.178Z,100.00
2022-10-29T03:46:30.343Z,100.00
2022-10-29T03:47:33.543Z,100.00
2022-10-29T03:48:35.940Z,100.00
2022-10-29T03:49:38.092Z,100.00
2022-10-29T03:50:40.187Z,100.00
2022-10-29T03:51:42.400Z,100.00
2022-10-29T03:52:44.480Z,100.00
2022-10-29T03:53:46.692Z,100.00
2022-10-29T03:54:48.890Z,100.00
2022-10-29T03:55:54.721Z,100.00
2022-10-29T03:56:56.875Z,100.00
2022-10-29T03:57:59.226Z,100.00
2022-10-29T03:59:01.420Z,100.00
2022-10-29T04:00:04.976Z,100.00
2022-10-29T04:01:14.943Z,100.00
2022-10-29T04:02:17.270Z,100.00
2022-10-29T04:03:19.496Z,100.00
2022-10-29T04:04:21.651Z,100.00
2022-10-29T04:05:23.862Z,100.00
2022-10-29T04:06:25.998Z,100.00
2022-10-29T04:07:28.157Z,100.00
2022-10-29T04:08:30.314Z,100.00
2022-10-29T04:09:32.474Z,100.00
2022-10-29T04:10:34.628Z,100.00
2022-10-29T04:11:36.723Z,100.00
2022-10-29T04:12:38.861Z,100.00
2022-10-29T04:13:41.037Z,100.00
2022-10-29T04:14:45.601Z,100.00
2022-10-29T04:15:48.061Z,100.00
2022-10-29T04:16:50.161Z,100.00
2022-10-29T04:17:52.368Z,100.00
2022-10-29T04:18:54.511Z,100.00
2022-10-29T04:19:56.609Z,100.00
2022-10-29T04:29:18.230Z,100.00
2022-10-29T04:30:20.406Z,100.00
2022-10-29T04:31:22.613Z,100.00
2022-10-29T04:32:24.714Z,100.00
2022-10-29T04:33:26.807Z,100.00
2022-10-29T04:34:28.961Z,100.00
2022-10-29T04:35:31.141Z,100.00
2022-10-29T04:36:33.277Z,100.00
2022-10-29T04:37:35.431Z,100.00
2022-10-29T04:38:38.391Z,100.00
2022-10-29T04:39:40.582Z,100.00
2022-10-29T04:40:42.758Z,100.00
2022-10-29T04:41:48.456Z,100.00
2022-10-29T04:42:50.814Z,100.00
2022-10-29T04:43:52.968Z,100.00
2022-10-29T04:44:55.072Z,100.00
2022-10-29T04:45:59.298Z,100.00
2022-10-29T04:47:01.411Z,100.00
2022-10-29T04:48:05.372Z,100.00
2022-10-29T04:49:07.567Z,100.00
2022-10-29T04:50:09.968Z,100.00
2022-10-29T04:51:23.625Z,100.00
2022-10-29T04:52:26.381Z,100.00
2022-10-29T04:53:28.544Z,100.00
2022-10-29T04:54:30.730Z,100.00
2022-10-29T04:55:37.225Z,100.00
2022-10-29T04:56:39.352Z,100.00
2022-10-29T04:57:41.530Z,100.00
2022-10-29T04:58:43.777Z,100.00
2022-10-29T04:59:45.921Z,100.00
2022-10-29T05:00:48.130Z,100.00
2022-10-29T05:01:50.295Z,100.00
2022-10-29T05:02:53.294Z,100.00
2022-10-29T05:03:59.005Z,100.00
2022-10-29T05:05:02.344Z,100.00
2022-10-29T05:06:05.611Z,100.00
2022-10-29T05:07:07.748Z,100.00
2022-10-29T05:08:11.362Z,100.00
2022-10-29T05:09:13.450Z,100.00
2022-10-29T05:10:15.675Z,100.00
2022-10-29T05:11:17.827Z,100.00
2022-10-29T05:12:19.960Z,100.00
2022-10-29T05:13:22.089Z,100.00
2022-10-29T05:14:24.192Z,100.00
2022-10-29T05:15:26.981Z,100.00
2022-10-29T05:16:29.117Z,100.00
2022-10-29T05:17:32.014Z,100.00
2022-10-29T05:18:34.133Z,100.00
2022-10-29T05:19:36.256Z,100.00
2022-10-29T05:20:38.373Z,100.00
2022-10-29T05:21:40.515Z,100.00
2022-10-29T05:22:42.767Z,100.00
2022-10-29T05:23:44.877Z,100.00
2022-10-29T05:24:47.150Z,100.00
2022-10-29T05:25:51.204Z,100.00
2022-10-29T05:26:53.355Z,100.00
2022-10-29T05:28:02.363Z,100.00
2022-10-29T05:29:04.501Z,100.00
2022-10-29T05:30:07.659Z,100.00
2022-10-29T05:31:09.830Z,100.00
2022-10-29T05:32:11.912Z,100.00
2022-10-29T05:33:23.016Z,100.00
2022-10-29T05:34:25.441Z,100.00
2022-10-29T05:35:28.146Z,100.00
2022-10-29T05:36:30.343Z,100.00
2022-10-29T05:37:32.444Z,100.00
2022-10-29T05:38:34.655Z,100.00
2022-10-29T05:39:36.760Z,100.00
2022-10-29T05:40:39.376Z,100.00
2022-10-29T05:41:41.508Z,100.00
2022-10-29T05:42:47.206Z,100.00
2022-10-29T05:43:50.304Z,100.00
2022-10-29T05:44:52.412Z,100.00
2022-10-29T05:45:54.855Z,100.00
2022-10-29T05:46:56.991Z,100.00
2022-10-29T05:48:00.908Z,100.00
2022-10-29T05:49:04.206Z,100.00
2022-10-29T05:50:06.690Z,100.00
2022-10-29T05:51:08.956Z,100.00
2022-10-29T05:52:11.087Z,100.00
2022-10-29T05:53:14.735Z,100.00
2022-10-29T05:54:16.904Z,100.00
2022-10-29T05:55:19.014Z,100.00
2022-10-29T05:56:21.269Z,100.00
2022-10-29T05:57:23.532Z,100.00
2022-10-29T05:58:25.698Z,100.00
2022-10-29T05:59:32.650Z,100.00
2022-10-29T06:00:38.335Z,100.00
2022-10-29T06:01:40.535Z,100.00
2022-10-29T06:02:43.832Z,100.00
2022-10-29T06:03:46.492Z,100.00
2022-10-29T06:04:48.704Z,100.00
2022-10-29T06:05:51.081Z,100.00
2022-10-29T06:06:53.271Z,100.00
2022-10-29T06:08:00.173Z,100.00
2022-10-29T06:09:02.738Z,100.00
2022-10-29T06:10:05.395Z,100.00
2022-10-29T06:11:07.596Z,100.00
2022-10-29T06:12:09.800Z,100.00
2022-10-29T06:13:13.708Z,100.00
2022-10-29T06:14:15.814Z,100.00
2022-10-29T06:15:18.205Z,100.00
2022-10-29T06:16:20.472Z,100.00
2022-10-29T06:17:22.588Z,100.00
2022-10-29T06:18:25.356Z,100.00
2022-10-29T06:19:27.556Z,100.00
2022-10-29T06:20:29.755Z,100.00
2022-10-29T06:21:31.919Z,100.00
2022-10-29T06:22:34.109Z,100.00
2022-10-29T06:23:36.228Z,100.00
2022-10-29T06:24:38.744Z,100.00
2022-10-29T06:25:41.004Z,100.00
2022-10-29T06:26:43.141Z,100.00
2022-10-29T06:27:45.255Z,100.00
2022-10-29T06:28:47.355Z,100.00
2022-10-29T06:29:49.570Z,100.00
2022-10-29T06:30:51.867Z,100.00
2022-10-29T06:31:54.025Z,100.00
2022-10-29T06:32:56.505Z,100.00
2022-10-29T06:33:58.941Z,100.00
2022-10-29T06:35:01.107Z,100.00
2022-10-29T06:36:03.399Z,100.00
2022-10-29T06:37:05.533Z,100.00
2022-10-29T06:38:10.864Z,100.00
2022-10-29T06:39:14.146Z,100.00
2022-10-29T06:40:16.454Z,100.00
2022-10-29T06:41:18.597Z,100.00
2022-10-29T06:42:20.993Z,100.00
2022-10-29T06:43:23.182Z,100.00
2022-10-29T06:44:25.337Z,100.00
2022-10-29T06:45:28.367Z,100.00
2022-10-29T06:46:30.931Z,100.00
2022-10-29T06:47:39.205Z,100.00
2022-10-29T06:48:41.312Z,100.00
2022-10-29T06:49:43.482Z,100.00
2022-10-29T06:50:45.580Z,100.00
2022-10-29T06:51:47.977Z,100.00
2022-10-29T06:52:58.134Z,100.00
2022-10-29T06:54:00.493Z,100.00
2022-10-29T06:55:03.420Z,100.00
2022-10-29T06:56:05.726Z,100.00
2022-10-29T06:57:07.861Z,100.00
2022-10-29T06:58:15.552Z,100.00
2022-10-29T06:59:17.666Z,100.00
2022-10-29T07:00:19.827Z,100.00
2022-10-29T07:01:23.635Z,100.00
2022-10-29T07:02:27.686Z,100.00
2022-10-29T07:03:29.856Z,100.00
2022-10-29T07:04:31.954Z,100.00
2022-10-29T07:05:35.459Z,100.00
2022-10-29T07:06:37.625Z,100.00
2022-10-29T07:07:39.743Z,100.00
2022-10-29T07:08:41.889Z,100.00
2022-10-29T07:09:44.078Z,100.00
2022-10-29T07:10:50.848Z,100.00
2022-10-29T07:11:52.974Z,100.00
2022-10-29T07:12:55.248Z,100.00
2022-10-29T07:13:57.730Z,100.00
2022-10-29T07:14:59.916Z,100.00
2022-10-29T07:16:02.037Z,100.00
2022-10-29T07:17:04.206Z,100.00
2022-10-29T07:18:08.306Z,100.00
2022-10-29T07:19:10.507Z,100.00
2022-10-29T07:20:18.421Z,100.00
2022-10-29T07:21:20.824Z,100.00
2022-10-29T07:22:23.051Z,100.00
2022-10-29T07:23:25.242Z,100.00
2022-10-29T07:24:27.371Z,100.00
2022-10-29T07:25:30.587Z,100.00
2022-10-29T07:26:32.725Z,100.00
2022-10-29T07:27:34.971Z,100.00
2022-10-29T07:28:37.190Z,100.00
2022-10-29T07:29:39.342Z,100.00
2022-10-29T07:30:42.456Z,100.00
2022-10-29T07:31:44.608Z,100.00
2022-10-29T07:32:46.900Z,100.00
2022-10-29T07:33:49.073Z,100.00
2022-10-29T07:34:51.218Z,100.00
2022-10-29T07:35:57.601Z,100.00
2022-10-29T07:36:59.815Z,100.00
2022-10-29T07:38:07.108Z,100.00
2022-10-29T07:39:11.042Z,100.00
2022-10-29T07:40:13.558Z,100.00
2022-10-29T07:41:15.656Z,100.00
2022-10-29T07:42:17.875Z,100.00
2022-10-29T07:43:21.098Z,100.00
2022-10-29T07:44:23.197Z,100.00
2022-10-29T07:45:25.488Z,100.00
2022-10-29T07:46:27.636Z,100.00
2022-10-29T07:47:29.824Z,100.00
2022-10-29T07:48:32.280Z,100.00
2022-10-29T07:49:34.399Z,100.00
2022-10-29T07:50:38.218Z,100.00
2022-10-29T07:51:40.370Z,100.00
2022-10-29T07:52:42.767Z,100.00
2022-10-29T07:53:44.918Z,100.00
2022-10-29T07:54:47.064Z,100.00
2022-10-29T07:55:56.123Z,100.00
2022-10-29T07:56:58.303Z,100.00
2022-10-29T07:58:03.304Z,100.00
2022-10-29T07:59:05.482Z,100.00
2022-10-29T08:00:08.311Z,100.00
2022-10-29T08:01:14.306Z,100.00
2022-10-29T08:02:16.621Z,100.00
2022-10-29T08:03:18.741Z,100.00
2022-10-29T08:04:20.933Z,100.00
2022-10-29T08:05:24.584Z,100.00
2022-10-29T08:06:26.714Z,100.00
2022-10-29T08:07:28.867Z,100.00
2022-10-29T08:08:31.154Z,100.00
2022-10-29T08:09:33.384Z,100.00
2022-10-29T08:10:36.313Z,100.00
2022-10-29T08:11:38.961Z,100.00
2022-10-29T08:12:41.097Z,100.00
2022-10-29T08:13:43.356Z,100.00
2022-10-29T08:14:45.620Z,100.00
2022-10-29T08:15:47.739Z,100.00
2022-10-29T08:16:49.958Z,100.00
2022-10-29T08:17:52.392Z,100.00
2022-10-29T08:18:54.514Z,100.00
2022-10-29T08:19:56.709Z,100.00
2022-10-29T08:20:58.813Z,100.00
2022-10-29T08:22:00.977Z,100.00
2022-10-29T08:23:03.082Z,100.00
2022-10-29T08:24:05.454Z,100.00
2022-10-29T08:25:08.007Z,100.00
2022-10-29T08:26:10.647Z,100.00
2022-10-29T08:27:12.815Z,100.00
2022-10-29T08:28:15.663Z,100.00
2022-10-29T08:29:17.811Z,100.00
2022-10-29T08:30:19.984Z,100.00
2022-10-29T08:31:22.123Z,100.00
2022-10-29T08:32:24.333Z,100.00
2022-10-29T08:33:26.431Z,100.00
2022-10-29T08:34:28.590Z,100.00
2022-10-29T08:35:31.473Z,100.00
2022-10-29T08:36:33.580Z,100.00
2022-10-29T08:37:35.770Z,100.00
2022-10-29T08:38:37.941Z,100.00
2022-10-29T08:39:40.035Z,100.00
2022-10-29T08:41:16.420Z,100.00
2022-10-29T08:42:51.068Z,100.00
2022-10-29T08:44:09.837Z,100.00
2022-10-29T08:45:16.866Z,100.00
2022-10-29T08:46:40.219Z,100.00
2022-10-29T08:47:54.940Z,100.00
2022-10-29T08:49:03.756Z,100.00
2022-10-29T08:50:23.994Z,100.00
2022-10-29T08:51:31.935Z,100.00
2022-10-29T08:52:48.170Z,100.00
2022-10-29T08:54:25.652Z,100.00
2022-10-29T08:55:30.458Z,100.00
2022-10-29T08:56:36.917Z,100.00
2022-10-29T08:57:43.962Z,100.00
2022-10-29T08:59:12.332Z,100.00
2022-10-29T09:00:19.283Z,100.00
2022-10-29T09:01:23.292Z,100.00
2022-10-29T09:02:26.241Z,100.00
2022-10-29T09:03:29.723Z,100.00
2022-10-29T09:04:37.871Z,100.00
2022-10-29T09:05:59.353Z,100.00
2022-10-29T09:07:20.304Z,100.00
2022-10-29T09:08:22.323Z,100.00
2022-10-29T09:09:44.484Z,100.00
2022-10-29T09:10:58.183Z,100.00
2022-10-29T09:12:30.394Z,100.00
2022-10-29T09:14:07.699Z,100.00
2022-10-29T09:15:38.508Z,100.00
2022-10-29T09:17:01.517Z,100.00
2022-10-29T09:18:31.612Z,100.00
2022-10-29T09:20:13.460Z,100.00
2022-10-29T09:21:28.382Z,100.00
2022-10-29T09:22:39.745Z,100.00
2022-10-29T09:24:01.703Z,100.00
2022-10-29T09:25:27.921Z,100.00
2022-10-29T09:26:33.666Z,100.00
2022-10-29T09:27:45.024Z,100.00
2022-10-29T09:29:24.831Z,100.00
2022-10-29T09:30:30.704Z,100.00
2022-10-29T09:31:44.516Z,100.00
2022-10-29T09:32:55.673Z,100.00
2022-10-29T09:34:04.250Z,100.00
2022-10-29T09:35:15.847Z,100.00
2022-10-29T09:36:21.676Z,100.00
2022-10-29T09:37:40.919Z,100.00
2022-10-29T09:38:53.388Z,100.00
2022-10-29T09:39:58.385Z,100.00
2022-10-29T09:41:02.739Z,100.00
2022-10-29T09:42:20.161Z,100.00
2022-10-29T09:43:54.614Z,100.00
2022-10-29T09:45:02.572Z,100.00
2022-10-29T09:46:13.519Z,100.00
2022-10-29T09:47:37.402Z,100.00
2022-10-29T09:49:03.307Z,100.00
2022-10-29T09:50:15.368Z,100.00
2022-10-29T09:51:47.071Z,100.00
2022-10-29T09:52:49.858Z,100.00
2022-10-29T09:53:52.605Z,100.00
2022-10-29T09:54:55.547Z,100.00
2022-10-29T09:55:57.774Z,100.00
2022-10-29T09:57:02.552Z,100.00
2022-10-29T09:58:06.584Z,100.00
2022-10-29T09:59:20.696Z,100.00
2022-10-29T10:00:26.259Z,100.00
2022-10-29T10:01:28.494Z,100.00
2022-10-29T10:02:55.698Z,98.77
2022-10-29T10:04:02.918Z,100.00
2022-10-29T10:05:13.518Z,98.85
2022-10-29T10:06:16.872Z,98.07
2022-10-29T10:07:20.685Z,99.71
2022-10-29T10:08:22.899Z,100.00
2022-10-29T10:09:25.042Z,99.70
2022-10-29T10:10:27.622Z,99.91
2022-10-29T10:11:39.764Z,100.00
2022-10-29T10:12:46.841Z,100.00
2022-10-29T10:13:57.657Z,100.00
2022-10-29T10:15:25.963Z,99.97
2022-10-29T10:16:32.344Z,100.00
2022-10-29T10:18:01.419Z,100.00
2022-10-29T10:19:23.233Z,100.00
2022-10-29T10:20:38.736Z,100.00
2022-10-29T10:21:40.891Z,100.00
2022-10-29T10:22:47.310Z,100.00
2022-10-29T10:23:53.756Z,100.00
2022-10-29T10:24:56.067Z,100.00
2022-10-29T10:26:03.718Z,100.00
2022-10-29T10:27:19.509Z,100.00
2022-10-29T10:28:24.579Z,100.00
2022-10-29T10:29:27.691Z,100.00
2022-10-29T10:30:29.856Z,100.00
2022-10-29T10:31:32.260Z,95.63
2022-10-29T10:32:34.463Z,99.28
2022-10-29T10:33:48.259Z,99.55
2022-10-29T10:34:51.298Z,97.72
2022-10-29T10:35:54.807Z,91.63
2022-10-29T10:37:04.242Z,89.43
2022-10-29T10:38:09.984Z,91.85
2022-10-29T10:39:53.036Z,91.38
2022-10-29T10:40:57.264Z,94.74
2022-10-29T10:42:02.196Z,93.07
2022-10-29T10:43:06.932Z,93.28
2022-10-29T10:44:13.483Z,93.46
2022-10-29T10:45:26.428Z,94.46
2022-10-29T10:46:38.864Z,97.61
2022-10-29T10:47:45.408Z,98.38
2022-10-29T10:48:57.812Z,99.54
2022-10-29T10:50:20.422Z,100.00
2022-10-29T10:51:31.182Z,100.00
2022-10-29T10:52:33.254Z,100.00
2022-10-29T10:53:35.623Z,100.00
2022-10-29T10:55:07.361Z,100.00
2022-10-29T10:56:16.930Z,100.00
2022-10-29T10:57:22.125Z,100.00
2022-10-29T10:58:45.010Z,100.00
2022-10-29T11:00:09.893Z,100.00
2022-10-29T11:01:25.889Z,100.00
2022-10-29T11:02:45.079Z,100.00
2022-10-29T11:03:59.107Z,100.00
2022-10-29T11:05:16.050Z,99.00
2022-10-29T11:06:31.607Z,98.75
2022-10-29T11:07:38.338Z,100.00
2022-10-29T11:08:47.850Z,100.00
2022-10-29T11:09:53.037Z,100.00
2022-10-29T11:10:56.862Z,100.00
2022-10-29T11:12:27.929Z,100.00
2022-10-29T11:13:32.550Z,100.00
2022-10-29T11:14:45.132Z,100.00
2022-10-29T11:16:18.010Z,100.00
2022-10-29T11:17:58.453Z,100.00
2022-10-29T11:19:54.769Z,100.00
2022-10-29T11:21:06.781Z,100.00
2022-10-29T11:22:21.891Z,100.00
2022-10-29T11:23:32.149Z,100.00
2022-10-29T11:25:01.542Z,100.00
2022-10-29T11:26:09.180Z,100.00
2022-10-29T11:27:25.423Z,100.00
2022-10-29T11:28:46.900Z,100.00
2022-10-29T11:30:06.760Z,100.00
2022-10-29T11:31:20.622Z,100.00
2022-10-29T11:32:41.243Z,100.00
2022-10-29T11:33:46.386Z,100.00
2022-10-29T11:34:56.190Z,100.00
2022-10-29T11:36:24.567Z,100.00
2022-10-29T11:37:41.246Z,100.00
2022-10-29T11:38:51.413Z,100.00
2022-10-29T11:40:03.596Z,100.00
2022-10-29T11:41:33.449Z,100.00
2022-10-29T11:42:36.263Z,100.00
2022-10-29T11:43:38.451Z,100.00
2022-10-29T11:44:41.571Z,99.78
2022-10-29T11:45:58.419Z,95.88
2022-10-29T11:47:16.968Z,93.59
2022-10-29T11:49:50.358Z,90.74
2022-10-29T11:51:21.597Z,86.78
2022-10-29T11:52:55.594Z,85.47
2022-10-29T11:54:22.502Z,84.97
2022-10-29T11:55:33.378Z,82.56
2022-10-29T11:56:47.481Z,83.96
2022-10-29T11:58:03.047Z,83.18
2022-10-29T11:59:28.677Z,83.95
2022-10-29T12:00:46.907Z,82.29
2022-10-29T12:01:58.534Z,83.50
2022-10-29T12:03:15.050Z,81.13
2022-10-29T12:04:27.352Z,78.06
2022-10-29T12:05:42.072Z,74.42
2022-10-29T12:07:09.325Z,70.11
2022-10-29T12:08:14.227Z,68.92
2022-10-29T12:09:36.673Z,64.79
2022-10-29T12:10:38.910Z,62.50
2022-10-29T12:12:03.760Z,60.11
2022-10-29T12:13:32.758Z,59.07
2022-10-29T12:14:42.883Z,58.52
2022-10-29T12:16:11.290Z,56.23
2022-10-29T12:17:26.013Z,55.42
2022-10-29T12:18:41.476Z,53.46
2022-10-29T12:19:58.301Z,52.12
2022-10-29T12:21:16.442Z,50.21
2022-10-29T12:22:23.258Z,51.20
2022-10-29T12:23:50.032Z,52.68
2022-10-29T12:25:07.742Z,51.82
2022-10-29T12:26:45.376Z,53.16
2022-10-29T12:27:59.473Z,54.95
2022-10-29T12:29:28.914Z,57.37
2022-10-29T12:30:38.954Z,58.71
2022-10-29T12:32:15.601Z,59.04
2022-10-29T12:33:42.111Z,59.12
2022-10-29T12:34:47.916Z,58.16
2022-10-29T12:36:15.200Z,54.97
2022-10-29T12:37:37.363Z,54.73
2022-10-29T12:38:47.241Z,53.32
2022-10-29T12:39:57.793Z,52.79
2022-10-29T12:41:03.756Z,54.86
2022-10-29T12:42:15.432Z,54.89
2022-10-29T12:43:30.395Z,55.36
2022-10-29T12:44:45.691Z,55.34
2022-10-29T12:46:23.748Z,56.13
2022-10-29T12:47:25.841Z,55.43
2022-10-29T12:48:40.024Z,57.32
2022-10-29T12:49:53.670Z,58.03
2022-10-29T12:51:26.546Z,57.77
2022-10-29T12:52:43.859Z,57.95
2022-10-29T12:54:07.505Z,55.67
2022-10-29T12:55:13.260Z,56.47
2022-10-29T12:56:16.521Z,56.52
2022-10-29T12:57:29.164Z,56.75
2022-10-29T12:58:49.664Z,54.11
2022-10-29T12:59:51.844Z,55.39
2022-10-29T13:00:54.091Z,53.77
2022-10-29T13:02:11.059Z,54.32
2022-10-29T13:03:52.866Z,51.84
2022-10-29T13:05:06.942Z,51.58
2022-10-29T13:06:43.062Z,52.27
2022-10-29T13:07:45.222Z,53.25
2022-10-29T13:08:56.463Z,54.56
2022-10-29T13:10:23.609Z,54.40
2022-10-29T13:11:44.119Z,55.01
2022-10-29T13:12:55.366Z,53.51
2022-10-29T13:14:00.493Z,54.96
2022-10-29T13:15:15.406Z,54.80
2022-10-29T13:16:24.378Z,58.01
2022-10-29T13:17:38.895Z,56.95
2022-10-29T13:19:03.773Z,56.03
2022-10-29T13:20:17.764Z,55.23
2022-10-29T13:21:57.744Z,57.13
2022-10-29T13:23:03.987Z,58.59
2022-10-29T13:24:17.073Z,59.39
2022-10-29T13:25:34.231Z,59.37
2022-10-29T13:26:56.706Z,60.19
2022-10-29T13:28:21.942Z,60.06
2022-10-29T13:29:43.515Z,59.34
2022-10-29T13:31:03.998Z,58.85
2022-10-29T13:32:06.536Z,59.12
2022-10-29T13:33:20.501Z,57.72
2022-10-29T13:34:50.894Z,60.48
2022-10-29T13:35:56.804Z,63.61
2022-10-29T13:37:54.075Z,64.69
2022-10-29T13:39:06.314Z,66.11
2022-10-29T13:40:31.112Z,66.29
2022-10-29T13:41:42.256Z,66.91
2022-10-29T13:42:45.745Z,67.84
2022-10-29T13:43:54.332Z,68.69
2022-10-29T13:44:56.686Z,68.93
2022-10-29T13:46:14.931Z,69.12
2022-10-29T13:47:21.986Z,70.15
2022-10-29T13:48:34.971Z,70.05
2022-10-29T13:49:37.103Z,70.75
2022-10-29T13:50:40.561Z,71.77
2022-10-29T13:52:04.325Z,72.35
2022-10-29T13:53:13.480Z,74.54
2022-10-29T13:54:22.128Z,75.03
2022-10-29T13:55:25.585Z,74.69
2022-10-29T13:56:36.135Z,76.66
2022-10-29T13:57:46.716Z,77.40
2022-10-29T13:58:51.304Z,76.62
2022-10-29T14:00:05.293Z,77.58
2022-10-29T14:01:17.429Z,79.59
2022-10-29T14:02:45.310Z,79.28
2022-10-29T14:03:59.547Z,80.05
2022-10-29T14:05:20.050Z,80.25
2022-10-29T14:06:33.331Z,80.91
2022-10-29T14:08:08.311Z,82.44
2022-10-29T14:09:22.265Z,82.75
2022-10-29T14:10:32.631Z,83.33
2022-10-29T14:11:40.100Z,84.44
2022-10-29T14:12:43.794Z,84.73
2022-10-29T14:13:52.045Z,88.80
2022-10-29T14:14:58.049Z,87.75
2022-10-29T14:16:06.288Z,87.04
2022-10-29T14:17:17.338Z,87.84
2022-10-29T14:18:26.928Z,88.02
2022-10-29T14:19:29.016Z,89.07
2022-10-29T14:45:25.720Z,100.00
2022-10-29T14:46:30.403Z,100.00
2022-10-29T14:47:36.512Z,100.00
2022-10-29T14:48:40.795Z,100.00
2022-10-29T14:49:48.062Z,100.00
2022-10-29T14:50:51.436Z,100.00
2022-10-29T14:52:07.623Z,100.00